»·PEaware :: ASA706 CYVR-KLAX

ASA706 :: CYVR-KLAX

FLIGHT INFORMATION

Flight Status: Arrived
Operator:
Alaska Airlines
More flights by this operator :: More flights under this callsign
Pilot: Justin U. (116)
Aircraft: BOEING 737-800
(B738)
More flights by this aircraft type
Origin: CYVR Vancouver Intl
Canada
Destination: KLAX Los Angeles Intl
United States
More flights between these airports :: More routes between these airports
Route: +YVR J5 SEA JINMO Q7 AVE SADDE6
File this flight plan on PilotEdge
Remarks: / V /
Altitude:
(Current/Filed)
35,000ft
Speed:
(Current/Filed)
441kts
Departed: 18-May-12 06:07 PM
Arrived: 18-May-12 07:38 PM
Distance/Time
Traveled:
940nm/1:31
Distance/Time
To Go:
Arrived

Flight Plot

Page will automatically refresh every two minutes.


Map Options




Map Legend


Flown Route
Filed Route
Departure Airport
Arrival Airport
Navaid (VOR, NDB)
Fix

Horizontal Profiles

Position Reports

Time Latitude Longitude Heading Altitude Ground
Speed
18-May-12 18:05 43.924765 -121.557903 175 35112ft 489kts
18-May-12 18:06 43.790600 -121.527124 176 35114ft 489kts
18-May-12 18:07 43.655924 -121.496415 176 35118ft 489kts
18-May-12 18:08 43.521238 -121.465856 176 35117ft 490kts
18-May-12 18:09 43.388050 -121.435776 176 35099ft 479kts
18-May-12 18:10 43.255732 -121.406026 176 35099ft 481kts
18-May-12 18:11 43.122395 -121.376179 176 35100ft 482kts
18-May-12 18:12 42.989659 -121.346597 176 35099ft 482kts
18-May-12 18:13 42.857507 -121.317273 176 35099ft 482kts
18-May-12 18:14 42.724879 -121.287972 176 35099ft 482kts
18-May-12 18:15 42.592276 -121.258804 176 35099ft 482kts
18-May-12 18:16 42.459611 -121.229747 176 35099ft 482kts
18-May-12 18:17 42.327414 -121.200916 176 35099ft 482kts
18-May-12 18:18 42.194791 -121.172115 176 35099ft 482kts
18-May-12 18:19 42.062136 -121.143429 176 35099ft 482kts
18-May-12 18:20 41.929530 -121.114874 176 35099ft 482kts
18-May-12 18:21 41.796888 -121.086443 176 35095ft 482kts
18-May-12 18:22 41.664271 -121.058115 175 35089ft 483kts
18-May-12 18:23 41.531364 -121.029853 175 35089ft 483kts
18-May-12 18:24 41.397792 -121.001563 175 35089ft 485kts
18-May-12 18:25 41.264208 -120.973329 175 35089ft 485kts
18-May-12 18:26 41.131083 -120.945381 175 35089ft 485kts
18-May-12 18:27 40.997420 -120.917794 178 35089ft 483kts
18-May-12 18:28 40.863921 -120.906348 182 35063ft 475kts
18-May-12 18:29 40.731838 -120.896478 182 35045ft 475kts
18-May-12 18:30 40.599530 -120.886150 182 35039ft 475kts
18-May-12 18:31 40.489650 -120.877474 182 35036ft 475kts
18-May-12 18:32 40.335367 -120.865311 181 35013ft 475kts
18-May-12 18:33 40.224774 -120.856606 181 35010ft 476kts
18-May-12 18:34 40.092095 -120.846203 181 35010ft 477kts
18-May-12 18:35 39.959340 -120.835835 181 35014ft 476kts
18-May-12 18:36 39.826321 -120.825485 181 35019ft 480kts
18-May-12 18:37 39.691992 -120.815103 180 35099ft 484kts
18-May-12 18:38 39.557388 -120.804697 180 35137ft 483kts
18-May-12 18:39 39.422783 -120.794346 180 35139ft 484kts
18-May-12 18:40 39.288235 -120.784057 180 35140ft 483kts
18-May-12 18:41 39.153585 -120.773742 180 35140ft 484kts
18-May-12 18:42 39.018904 -120.763497 180 35140ft 484kts
18-May-12 18:43 38.884906 -120.753322 181 35072ft 482kts
18-May-12 18:44 38.750861 -120.743240 181 35021ft 481kts
18-May-12 18:45 38.617526 -120.733205 182 35009ft 476kts
18-May-12 18:46 38.484903 -120.723310 181 34994ft 478kts
18-May-12 18:47 38.352159 -120.713404 181 34985ft 477kts
18-May-12 18:48 38.219129 -120.703519 181 34973ft 479kts
18-May-12 18:49 38.086059 -120.693679 181 34965ft 477kts
18-May-12 18:50 37.952510 -120.683804 180 34930ft 480kts
18-May-12 18:51 37.819568 -120.674021 180 34919ft 479kts
18-May-12 18:52 37.686144 -120.664244 180 34919ft 479kts
18-May-12 18:53 37.552802 -120.654484 180 34923ft 478kts
18-May-12 18:54 37.422731 -120.645034 181 34929ft 470kts
18-May-12 18:55 37.288642 -120.622616 167 34930ft 480kts
18-May-12 18:56 37.160446 -120.571029 166 34920ft 484kts
18-May-12 18:57 37.031988 -120.519637 166 34918ft 483kts
18-May-12 18:58 36.904042 -120.468625 166 34927ft 482kts
18-May-12 18:59 36.775681 -120.417782 167 34930ft 483kts
18-May-12 19:00 36.647405 -120.367183 166 34929ft 483kts
18-May-12 19:01 36.519026 -120.316698 167 34929ft 483kts
18-May-12 19:02 36.369633 -120.258246 167 34930ft 483kts
18-May-12 19:03 36.262477 -120.216451 167 34929ft 483kts
18-May-12 19:04 36.134018 -120.166501 167 34929ft 483kts
18-May-12 19:05 36.005952 -120.116869 167 34929ft 483kts
18-May-12 19:06 35.877409 -120.067118 167 34929ft 483kts
18-May-12 19:07 35.748930 -120.017706 167 34940ft 484kts
18-May-12 19:08 35.620213 -119.955847 153 34935ft 507kts
18-May-12 19:09 35.508077 -119.859120 147 33227ft 490kts
18-May-12 19:09 35.433526 -119.794100 148 31402ft 491kts
18-May-12 19:10 35.359545 -119.730360 148 30397ft 491kts
18-May-12 19:11 35.284865 -119.666294 148 29231ft 483kts
18-May-12 19:12 35.176624 -119.573741 148 27519ft 467kts
18-May-12 19:13 35.071247 -119.483974 147 25865ft 453kts
18-May-12 19:14 34.969142 -119.397133 147 24225ft 448kts
18-May-12 19:15 34.866860 -119.309959 147 22614ft 439kts
18-May-12 19:16 34.768093 -119.226451 148 21061ft 427kts
18-May-12 19:17 34.671231 -119.144846 146 19533ft 421kts
18-May-12 19:18 34.576060 -119.064738 146 18050ft 409kts
18-May-12 19:19 34.483320 -118.987023 147 16608ft 400kts
18-May-12 19:20 34.392370 -118.911085 146 15163ft 392kts
18-May-12 19:21 34.295356 -118.857605 165 13733ft 377kts
18-May-12 19:22 34.196741 -118.822403 164 12394ft 362kts
18-May-12 19:23 34.103468 -118.788232 163 11409ft 339kts
18-May-12 19:24 34.032572 -118.730807 105 10503ft 306kts
18-May-12 19:25 34.027233 -118.635079 92 9543ft 274kts
18-May-12 19:26 34.018721 -118.545908 92 8267ft 260kts
18-May-12 19:27 34.012028 -118.475494 92 7259ft 248kts
18-May-12 19:28 34.016324 -118.395306 78 6394ft 233kts
18-May-12 19:29 34.023211 -118.305156 82 5210ft 227kts
18-May-12 19:31 34.035319 -118.169567 85 2579ft 219kts
18-May-12 19:32 33.991735 -118.153743 225 2543ft 216kts
18-May-12 19:33 33.971123 -118.219422 260 2157ft 208kts
18-May-12 19:34 33.963695 -118.288733 264 1962ft 206kts
18-May-12 19:35 33.957488 -118.349406 264 983ft 157kts
18-May-12 19:36 33.951346 -118.408909 264 135ft 131kts
18-May-12 19:37 33.948477 -118.426923 215 134ft 33kts
18-May-12 19:38 33.945692 -118.427761 172 134ft 14kts
18-May-12 19:39 33.942418 -118.427302 169 134ft 13kts
18-May-12 19:40 33.937074 -118.426346 123 134ft 14kts
18-May-12 19:41 33.937484 -118.420494 83 134ft 26kts
18-May-12 19:42 33.938254 -118.413019 81 134ft 19kts
18-May-12 19:43 33.938825 -118.407431 82 134ft 20kts
18-May-12 19:44 33.939374 -118.402180 76 134ft 6kts
18-May-12 19:45 33.939986 -118.401950 350 134ft 0kts
18-May-12 19:46 33.939987 -118.401950 350 134ft 0kts
18-May-12 19:47 33.939987 -118.401950 350 134ft 0kts

Navigation Log

Ident Type
Flight plan parsing failed, navigation log unavailable